Rhodanus — PGBC — position and weather

sailwx.info

Track history (hours):
 
Tides and Currents Weather Stations Pressure Air Temp Water Temp Dewpoint Dewpoint Depression Visibility Wind Speed Wind Dir Waves Ship Positions

Rhodanus

Last reported at 2016-May-03 23:23 UTC. Time now 2016-May-04 11:42 UTC.
Position N 41°22' E 002°10'.

Length 89 m; draft 4.3 m.

Type: Ship. MMSI: 245848000.

Date/timePositionNaut miles runAvg speedWind from/ knotsBaromVisibWave heightAir tempDewpointWater temp
2016-May-03 23:23N 41°22' E 002°10'0 0.0
2016-May-03 21:16N 41°22' E 002°10'7 3.8
2016-May-03 19:33N 41°17' E 002°17'9 7.9
2016-May-03 18:25N 41°21' E 002°28'16 7.9
2016-May-03 16:26N 41°30' E 002°45'7 7.8
2016-May-03 15:31N 41°34' E 002°53'124 7.3
2016-May-02 22:33N 43°11' E 004°37'16 7.9
2016-May-02 20:33N 43°19' E 004°55'21 0.4
2016-Apr-30 18:31N 43°36' E 004°39'15 4.9
2016-Apr-30 15:26N 43°23' E 004°49'6 7.1
2016-Apr-30 14:33N 43°22' E 004°57'5 5.1
2016-Apr-30 13:33N 43°18' E 005°00'9 4.3
2016-Apr-30 11:30N 43°09' E 004°58'7 7.8
2016-Apr-30 10:33N 43°06' E 004°49'12 9.0
2016-Apr-30 09:16N 43°01' E 004°34'  
2016-Apr-27 21:33N 43°18' E 004°53'6 5.8
2016-Apr-27 20:32N 43°24' E 004°54'22 1.0
2016-Apr-26 22:32N 43°42' E 004°38'19 4.8
2016-Apr-26 18:33N 43°24' E 004°46'2 1.4
2016-Apr-26 17:24N 43°23' E 004°48'5 6.2
2016-Apr-26 16:33N 43°23' E 004°56'8 7.5
2016-Apr-26 15:34N 43°17' E 005°01'14 7.2
2016-Apr-26 13:33N 43°03' E 004°53'9 8.3
2016-Apr-26 12:27N 42°57' E 004°44'  
Track history (hours):
 
Tides and Currents Weather Stations Pressure Air Temp Water Temp Dewpoint Dewpoint Depression Visibility Wind Speed Wind Dir Waves Ship Positions

Rhodanus

Last reported at 2016-May-03 23:23 UTC. Time now 2016-May-04 11:42 UTC.
Position N 41°22' E 002°10'.

Length 89 m; draft 4.3 m.

Type: Ship. MMSI: 245848000.

Date/timePositionNaut miles runAvg speedWind from/ knotsBaromVisibWave heightAir tempDewpointWater temp
2016-May-03 23:23N 41°22' E 002°10'0 0.0
2016-May-03 21:16N 41°22' E 002°10'7 3.8
2016-May-03 19:33N 41°17' E 002°17'9 7.9
2016-May-03 18:25N 41°21' E 002°28'16 7.9
2016-May-03 16:26N 41°30' E 002°45'7 7.8
2016-May-03 15:31N 41°34' E 002°53'124 7.3
2016-May-02 22:33N 43°11' E 004°37'16 7.9
2016-May-02 20:33N 43°19' E 004°55'21 0.4
2016-Apr-30 18:31N 43°36' E 004°39'15 4.9
2016-Apr-30 15:26N 43°23' E 004°49'6 7.1
2016-Apr-30 14:33N 43°22' E 004°57'5 5.1
2016-Apr-30 13:33N 43°18' E 005°00'9 4.3
2016-Apr-30 11:30N 43°09' E 004°58'7 7.8
2016-Apr-30 10:33N 43°06' E 004°49'12 9.0
2016-Apr-30 09:16N 43°01' E 004°34'  
2016-Apr-27 21:33N 43°18' E 004°53'6 5.8
2016-Apr-27 20:32N 43°24' E 004°54'22 1.0
2016-Apr-26 22:32N 43°42' E 004°38'19 4.8
2016-Apr-26 18:33N 43°24' E 004°46'2 1.4
2016-Apr-26 17:24N 43°23' E 004°48'5 6.2
2016-Apr-26 16:33N 43°23' E 004°56'8 7.5
2016-Apr-26 15:34N 43°17' E 005°01'14 7.2
2016-Apr-26 13:33N 43°03' E 004°53'9 8.3
2016-Apr-26 12:27N 42°57' E 004°44'  

Dump ship's entire track history